Saxis, Virginia
Current Conditions -  °F | °C
As of 2:54 AM on Saturday 29 Nov 2014 (Local Time) from KWAL Reporting Station
Scattered Clouds Scattered Clouds  
Wind Chill: 27°   Ceiling: Unl
Heat Index: 27°   Visibility: 10mi
Dew Point: 20°   Wind: 3mph
Humidity: 75%   Direction: 350°N
Pressure: 30.33"   Gusts: NA
Location:  37.92°N, 75.72°W
Report Text: KWAL 290754Z AUTO 35003KT 10SM SCT090 SCT110 M03/M07 A3033 RMK AO2 SLP268 T10281067
Loading
Personal Weather Stations






























Interactive Weather Map New forecast layout! Learn more

10-Day Weather Forecast

Advertisements
Track Severe Weather on mobile